createdAt,value
2018-02-23T00:03:42.211Z,101808.25
2018-02-23T00:06:17.596Z,101801.33
2018-02-23T00:08:51.409Z,101799.89
2018-02-23T00:11:23.918Z,101785.64
2018-02-23T00:13:57.523Z,101794.34
2018-02-23T00:16:35.196Z,101795.78
2018-02-23T00:21:49.007Z,101786.16
2018-02-23T00:24:26.139Z,101792.54
2018-02-23T00:29:44.023Z,101791.31
2018-02-23T00:32:24.932Z,101797.94
2018-02-23T00:35:02.993Z,101776.86
2018-02-23T00:37:37.828Z,101791.12
2018-02-23T00:40:10.679Z,101785.70
2018-02-23T00:42:53.375Z,101789.39
2018-02-23T00:45:25.191Z,101787.56
2018-02-23T00:47:58.226Z,101790.08
2018-02-23T00:50:30.859Z,101785.86
2018-02-23T00:53:04.868Z,101791.16
2018-02-23T00:55:38.330Z,101796.64
2018-02-23T00:58:09.441Z,101786.81
2018-02-23T01:00:40.250Z,101793.02
2018-02-23T01:03:12.022Z,101797.48
2018-02-23T01:05:43.030Z,101788.72
2018-02-23T01:08:13.691Z,101787.27
2018-02-23T01:10:45.390Z,101794.52
2018-02-23T01:13:16.977Z,101790.05
2018-02-23T01:15:48.322Z,101781.15
2018-02-23T01:18:22.522Z,101785.14
2018-02-23T01:20:56.061Z,101778.89
2018-02-23T01:23:28.632Z,101783.11
2018-02-23T01:26:05.612Z,101788.87
2018-02-23T01:28:36.688Z,101787.13
2018-02-23T01:31:07.216Z,101787.62
2018-02-23T01:33:42.878Z,101784.38
2018-02-23T01:36:41.901Z,101783.47
2018-02-23T01:39:13.394Z,101778.67
2018-02-23T01:41:46.785Z,101775.44
2018-02-23T01:44:23.305Z,101776.86
2018-02-23T01:46:57.461Z,101769.52
2018-02-23T01:49:37.505Z,101766.42
2018-02-23T01:52:10.791Z,101761.02
2018-02-23T01:54:45.347Z,101761.84
2018-02-23T01:57:19.537Z,101758.84
2018-02-23T01:59:55.281Z,101756.38
2018-02-23T02:02:30.496Z,101756.48
2018-02-23T02:05:05.137Z,101750.58
2018-02-23T02:07:40.611Z,101751.09
2018-02-23T02:10:16.551Z,101747.19
2018-02-23T02:12:54.980Z,101746.73
2018-02-23T02:15:28.844Z,101702.36
2018-02-23T02:18:04.233Z,101752.90
2018-02-23T02:20:39.552Z,101747.84
2018-02-23T02:23:12.555Z,101752.72
2018-02-23T02:25:47.071Z,101749.87
2018-02-23T02:28:23.872Z,101753.52
2018-02-23T02:30:55.236Z,101752.22
2018-02-23T02:33:30.156Z,101753.58
2018-02-23T02:36:03.319Z,101753.08
2018-02-23T02:38:36.111Z,101748.53
2018-02-23T02:41:16.910Z,101736.77
2018-02-23T02:43:52.811Z,101735.13
2018-02-23T02:46:24.547Z,101736.93
2018-02-23T02:48:55.850Z,101733.74
2018-02-23T02:51:37.311Z,101735.98
2018-02-23T02:54:13.165Z,101740.42
2018-02-23T02:56:48.213Z,101728.39
2018-02-23T02:59:25.941Z,101735.89
2018-02-23T03:02:04.016Z,101728.50
2018-02-23T03:04:36.615Z,101736.32
2018-02-23T03:07:10.938Z,101735.48
2018-02-23T03:09:46.321Z,101737.27
2018-02-23T03:12:19.499Z,101738.11
2018-02-23T03:14:52.717Z,101738.81
2018-02-23T03:17:29.050Z,101740.53
2018-02-23T03:20:02.722Z,101739.38
2018-02-23T03:22:36.501Z,101744.21
2018-02-23T03:25:13.243Z,101749.16
2018-02-23T03:27:48.706Z,101741.20
2018-02-23T03:30:22.450Z,101757.38
2018-02-23T03:33:00.938Z,101748.84
2018-02-23T03:35:38.193Z,101751.45
2018-02-23T03:38:12.438Z,101744.03
2018-02-23T03:40:49.525Z,101740.75
2018-02-23T03:43:21.914Z,101732.48
2018-02-23T03:45:56.517Z,101739.00
2018-02-23T03:48:33.263Z,101741.82
2018-02-23T03:51:10.073Z,101735.87
2018-02-23T03:53:43.813Z,101740.19
2018-02-23T03:56:20.066Z,101733.73
2018-02-23T03:58:56.604Z,101743.04
2018-02-23T04:01:27.914Z,101740.80
2018-02-23T04:04:03.554Z,101739.25
2018-02-23T04:06:38.284Z,101733.16
2018-02-23T04:09:10.268Z,101741.69
2018-02-23T04:11:47.725Z,101741.16
2018-02-23T04:14:21.069Z,101740.01
2018-02-23T04:16:54.874Z,101742.00
2018-02-23T04:19:27.926Z,101742.00
2018-02-23T04:22:00.326Z,101742.37
2018-02-23T04:24:31.650Z,101742.23
2018-02-23T04:29:52.541Z,101742.56
2018-02-23T04:32:24.777Z,101747.36
2018-02-23T04:34:56.603Z,101748.55
2018-02-23T04:37:28.863Z,101746.83
2018-02-23T04:40:02.063Z,101749.26
2018-02-23T04:42:37.312Z,101756.33
2018-02-23T05:30:36.091Z,101773.48
2018-02-23T05:33:10.465Z,101763.27
2018-02-23T05:35:47.821Z,101764.05
2018-02-23T05:38:22.468Z,101764.30
2018-02-23T05:40:58.194Z,101760.19
2018-02-23T05:43:32.585Z,101763.27
2018-02-23T05:46:12.668Z,101759.75
2018-02-23T05:48:48.959Z,101752.17
2018-02-23T05:51:22.182Z,101757.95
2018-02-23T05:53:55.860Z,101752.37
2018-02-23T05:56:31.373Z,101751.61
2018-02-23T05:59:07.837Z,101748.95
2018-02-23T06:01:43.778Z,101743.38
2018-02-23T06:04:20.674Z,101728.84
2018-02-23T06:06:52.365Z,101745.29
2018-02-23T06:09:26.657Z,101751.27
2018-02-23T06:12:04.710Z,101751.71
2018-02-23T06:14:41.954Z,101764.98
2018-02-23T06:17:22.361Z,101760.98
2018-02-23T06:19:58.335Z,101757.97
2018-02-23T06:22:28.927Z,101759.31
2018-02-23T06:25:00.336Z,101758.89
2018-02-23T06:27:31.337Z,101763.62
2018-02-23T06:30:06.065Z,101773.22
2018-02-23T06:32:47.986Z,101775.90
2018-02-23T06:35:18.784Z,101760.59
2018-02-23T06:37:49.762Z,101779.05
2018-02-23T06:40:23.356Z,101778.33
2018-02-23T06:42:54.465Z,101781.20
2018-02-23T06:45:26.569Z,101789.81
2018-02-23T06:47:57.574Z,101770.91
2018-02-23T06:50:31.016Z,101785.45
2018-02-23T06:53:02.492Z,101781.98
2018-02-23T06:55:33.143Z,101784.88
2018-02-23T06:58:03.928Z,101782.63
2018-02-23T07:00:37.268Z,101788.03
2018-02-23T07:03:08.031Z,101784.59
2018-02-23T07:05:38.997Z,101790.23
2018-02-23T07:08:09.972Z,101785.38
2018-02-23T07:10:42.761Z,101787.94
2018-02-23T07:13:39.679Z,101788.42
2018-02-23T07:16:12.501Z,101777.19
2018-02-23T07:18:45.816Z,101793.61
2018-02-23T07:21:16.573Z,101793.95
2018-02-23T07:23:46.935Z,101787.03
2018-02-23T07:26:18.152Z,101782.37
2018-02-23T07:28:51.280Z,101769.88
2018-02-23T07:31:26.161Z,101787.09
2018-02-23T07:33:57.017Z,101797.02
2018-02-23T07:36:28.455Z,101794.17
2018-02-23T07:38:59.075Z,101794.64
2018-02-23T07:41:29.919Z,101769.83
2018-02-23T07:44:02.255Z,101803.47
2018-02-23T07:46:34.339Z,101805.85
2018-02-23T07:49:05.000Z,101810.98
2018-02-23T07:51:35.697Z,101808.52
2018-02-23T07:54:06.514Z,101807.96
2018-02-23T07:56:39.728Z,101806.61
2018-02-23T07:59:10.740Z,101805.42
2018-02-23T08:01:42.268Z,101805.62
2018-02-23T08:04:13.170Z,101810.66
2018-02-23T08:06:44.660Z,101812.66
2018-02-23T08:09:15.258Z,101806.44
2018-02-23T08:11:46.475Z,101818.27
2018-02-23T08:14:16.842Z,101811.98
2018-02-23T08:16:47.700Z,101809.56
2018-02-23T08:19:18.578Z,101806.48
2018-02-23T08:21:49.165Z,101806.21
2018-02-23T08:24:20.937Z,101816.03
2018-02-23T08:26:52.412Z,101807.35
2018-02-23T08:29:22.857Z,101814.03
2018-02-23T08:31:53.455Z,101818.95
2018-02-23T08:34:24.189Z,101817.94
2018-02-23T08:36:56.419Z,101810.02
2018-02-23T08:39:27.121Z,101811.65
2018-02-23T08:42:00.941Z,101808.23
2018-02-23T08:44:33.455Z,101810.80
2018-02-23T08:47:08.230Z,101797.27
2018-02-23T08:49:41.047Z,101799.86
2018-02-23T08:52:11.862Z,101795.70
2018-02-23T08:54:43.162Z,101806.59
2018-02-23T08:57:18.535Z,101804.02
2018-02-23T08:59:52.747Z,101797.75
2018-02-23T09:02:24.209Z,101793.70
2018-02-23T09:05:01.637Z,101795.67
2018-02-23T09:07:32.365Z,101792.39
2018-02-23T09:10:03.374Z,101804.66
2018-02-23T09:12:33.954Z,101802.28
2018-02-23T09:15:13.345Z,101795.23
2018-02-23T09:17:44.923Z,101800.72
2018-02-23T09:20:15.406Z,101792.67
2018-02-23T09:22:45.885Z,101802.64
2018-02-23T09:25:20.942Z,101795.36
2018-02-23T09:27:53.236Z,101794.61
2018-02-23T09:30:23.885Z,101802.77
2018-02-23T09:33:00.453Z,101797.34
2018-02-23T09:35:30.975Z,101808.92
2018-02-23T09:38:02.106Z,101802.92
2018-02-23T09:40:56.676Z,101795.29
2018-02-23T09:43:27.495Z,101800.83
2018-02-23T09:45:59.498Z,101790.13
2018-02-23T09:48:30.065Z,101798.42
2018-02-23T09:51:01.921Z,101788.90
2018-02-23T09:53:43.861Z,101801.54
2018-02-23T09:56:14.941Z,101802.73
2018-02-23T09:58:45.763Z,101795.91
2018-02-23T10:01:17.153Z,101809.98
2018-02-23T10:03:47.694Z,101804.08
2018-02-23T10:06:18.298Z,101824.50
2018-02-23T10:08:49.341Z,101802.67
2018-02-23T10:11:20.312Z,101806.75
2018-02-23T10:13:54.076Z,101800.32
2018-02-23T10:16:25.065Z,101792.70
2018-02-23T10:18:57.227Z,101795.67
2018-02-23T10:21:30.014Z,101799.86
2018-02-23T10:24:02.346Z,101794.36
2018-02-23T10:26:37.149Z,101793.23
2018-02-23T10:29:09.806Z,101790.92
2018-02-23T10:31:41.282Z,101803.31
2018-02-23T10:34:12.128Z,101783.02
2018-02-23T10:36:43.247Z,101790.04
2018-02-23T10:39:14.488Z,101790.48
2018-02-23T10:41:52.818Z,101787.05
2018-02-23T10:44:23.855Z,101785.06
2018-02-23T10:46:56.324Z,101780.80
2018-02-23T10:49:27.602Z,101782.53
2018-02-23T10:51:58.292Z,101782.06
2018-02-23T10:54:36.946Z,101769.41
2018-02-23T10:57:12.943Z,101767.41
2018-02-23T10:59:44.840Z,101767.45
2018-02-23T11:02:19.941Z,101757.92
2018-02-23T11:04:57.568Z,101755.34
2018-02-23T11:07:34.779Z,101753.03
2018-02-23T11:10:06.805Z,101747.32
2018-02-23T11:12:44.644Z,101750.87
2018-02-23T11:15:23.339Z,101743.98
2018-02-23T11:17:56.259Z,101745.76
2018-02-23T11:20:27.757Z,101732.05
2018-02-23T11:23:03.537Z,101730.81
2018-02-23T11:25:36.466Z,101727.41
2018-02-23T11:28:10.211Z,101732.90
2018-02-23T11:30:49.009Z,101726.40
2018-02-23T11:33:20.831Z,101723.56
2018-02-23T11:35:55.480Z,101726.80
2018-02-23T11:38:27.239Z,101726.27
2018-02-23T11:41:05.909Z,101723.19
2018-02-23T11:43:40.822Z,101724.11
2018-02-23T11:46:14.397Z,101731.73
2018-02-23T11:48:46.169Z,101719.88
2018-02-23T11:51:18.076Z,101714.17
2018-02-23T11:53:50.484Z,101674.41
2018-02-23T11:56:20.920Z,101713.99
2018-02-23T11:59:09.449Z,101709.86
2018-02-23T12:01:41.243Z,101712.27
2018-02-23T12:04:12.697Z,101709.00
2018-02-23T12:06:43.554Z,101704.86
2018-02-23T12:09:15.735Z,101708.16
2018-02-23T12:11:46.686Z,101704.01
2018-02-23T12:14:17.060Z,101716.66
2018-02-23T12:16:47.739Z,101697.81
2018-02-23T12:19:18.390Z,101704.23
2018-02-23T12:21:49.740Z,101687.95
2018-02-23T12:24:29.624Z,101660.48
2018-02-23T12:27:02.279Z,101691.25
2018-02-23T12:29:32.688Z,101684.92
2018-02-23T12:32:05.490Z,101669.98
2018-02-23T12:34:36.398Z,101677.59
2018-02-23T12:37:07.163Z,101677.61
2018-02-23T12:39:46.643Z,101671.44
2018-02-23T12:42:17.492Z,101672.72
2018-02-23T12:44:48.556Z,101674.92
2018-02-23T12:47:19.244Z,101665.73
2018-02-23T12:49:50.054Z,101662.84
2018-02-23T12:52:21.854Z,101636.95
2018-02-23T12:54:53.086Z,101657.78
2018-02-23T12:57:28.664Z,101654.82
2018-02-23T12:59:59.936Z,101648.74
2018-02-23T13:02:33.784Z,101638.41
2018-02-23T13:05:04.820Z,101652.34
2018-02-23T13:07:37.707Z,101648.80
2018-02-23T13:10:11.544Z,101650.50
2018-02-23T13:12:43.924Z,101650.23
2018-02-23T13:15:26.942Z,101639.20
2018-02-23T13:17:58.015Z,101650.08
2018-02-23T13:20:30.020Z,101638.67
2018-02-23T13:23:00.999Z,101635.38
2018-02-23T13:25:32.250Z,101633.01
2018-02-23T13:28:07.376Z,101624.95
2018-02-23T13:30:39.578Z,101624.05
2018-02-23T13:33:12.547Z,101630.88
2018-02-23T13:35:44.882Z,101631.67
2018-02-23T13:38:17.129Z,101628.69
2018-02-23T13:40:56.405Z,101626.52
2018-02-23T13:43:29.581Z,101616.41
2018-02-23T13:46:02.237Z,101607.23
2018-02-23T13:48:34.321Z,101616.30
2018-02-23T13:51:06.946Z,101615.64
2018-02-23T13:53:54.553Z,101619.80
2018-02-23T13:56:30.221Z,101597.16
2018-02-23T14:02:09.913Z,101607.30
2018-02-23T14:04:42.263Z,101609.49
2018-02-23T14:07:18.075Z,101606.50
2018-02-23T14:09:49.510Z,101599.09
2018-02-23T14:12:23.572Z,101597.64
2018-02-23T14:14:55.284Z,101597.47
2018-02-23T14:17:27.634Z,101595.56
2018-02-23T14:20:07.634Z,101591.58
2018-02-23T14:22:40.451Z,101597.38
2018-02-23T14:25:11.926Z,101600.66
2018-02-23T14:27:48.184Z,101595.13
2018-02-23T14:30:25.689Z,101589.76
2018-02-23T14:32:57.057Z,101592.84
2018-02-23T14:35:29.739Z,101583.34
2018-02-23T14:38:01.664Z,101579.45
2018-02-23T14:40:34.021Z,101582.14
2018-02-23T14:43:05.812Z,101594.48
2018-02-23T14:45:38.635Z,101576.19
2018-02-23T14:48:10.616Z,101575.54
2018-02-23T14:50:52.863Z,101585.38
2018-02-23T14:53:24.636Z,101587.07
2018-02-23T14:55:58.586Z,101590.83
2018-02-23T14:58:31.269Z,101585.69
2018-02-23T15:01:05.878Z,101557.15
2018-02-23T15:03:38.279Z,101584.95
2018-02-23T15:06:10.397Z,101581.95
2018-02-23T15:08:41.836Z,101575.04
2018-02-23T15:11:13.825Z,101579.17
2018-02-23T15:13:51.387Z,101581.16
2018-02-23T15:16:25.912Z,101583.30
2018-02-23T15:18:58.977Z,101583.32
2018-02-23T15:21:30.646Z,101582.14
2018-02-23T15:24:14.097Z,101591.88
2018-02-23T15:26:45.611Z,101584.02
2018-02-23T15:29:17.697Z,101588.31
2018-02-23T15:32:27.851Z,101590.05
2018-02-23T15:35:00.911Z,101584.70
2018-02-23T15:37:31.954Z,101589.49
2018-02-23T15:40:03.892Z,101586.84
2018-02-23T15:42:35.634Z,101587.56
2018-02-23T15:45:08.055Z,101579.56
2018-02-23T15:47:40.490Z,101581.86
2018-02-23T15:50:17.795Z,101583.37
2018-02-23T15:52:49.963Z,101585.86
2018-02-23T15:55:21.735Z,101574.89
2018-02-23T15:57:53.573Z,101577.06
2018-02-23T16:00:25.381Z,101585.16
2018-02-23T16:02:58.185Z,101585.34
2018-02-23T16:05:32.290Z,101569.88
2018-02-23T16:14:01.257Z,101588.64
2018-02-23T16:16:34.880Z,101586.53
2018-02-23T16:19:06.937Z,101585.55
2018-02-23T16:21:38.024Z,101588.96
2018-02-23T16:24:09.482Z,101590.26
2018-02-23T16:26:42.362Z,101591.05
2018-02-23T16:29:18.549Z,101588.84
2018-02-23T16:31:59.451Z,101590.59
2018-02-23T16:34:37.048Z,101597.41
2018-02-23T16:37:10.803Z,101598.63
2018-02-23T16:39:43.413Z,101602.75
2018-02-23T16:42:19.670Z,101608.31
2018-02-23T16:44:56.197Z,101603.50
2018-02-23T16:47:27.984Z,101603.96
2018-02-23T16:49:59.424Z,101619.14
2018-02-23T16:52:30.702Z,101617.52
2018-02-23T16:55:06.196Z,101565.64
2018-02-23T16:57:39.839Z,101613.50
2018-02-23T17:00:15.737Z,101619.73
2018-02-23T17:02:51.598Z,101618.81
2018-02-23T17:05:26.932Z,101625.98
2018-02-23T17:08:12.447Z,101628.22
2018-02-23T17:10:47.056Z,101623.77
2018-02-23T17:13:18.050Z,101630.73
2018-02-23T17:15:52.849Z,101609.70
2018-02-23T17:18:25.000Z,101638.74
2018-02-23T17:20:57.229Z,101625.91
2018-02-23T17:23:28.917Z,101632.61
2018-02-23T17:39:06.044Z,101626.48
2018-02-23T17:41:38.066Z,101635.03
2018-02-23T17:44:09.513Z,101615.47
2018-02-23T17:46:42.800Z,101636.27
2018-02-23T17:49:15.828Z,101631.83
2018-02-23T17:51:47.280Z,101637.07
2018-02-23T17:54:19.738Z,101637.00
2018-02-23T17:56:51.985Z,101637.19
2018-02-23T17:59:25.478Z,101635.60
2018-02-23T18:01:57.403Z,101642.83
2018-02-23T18:04:29.671Z,101645.21
2018-02-23T18:07:05.392Z,101640.73
2018-02-23T18:09:38.240Z,101645.69
2018-02-23T18:12:10.004Z,101637.40
2018-02-23T18:14:56.854Z,101643.80
2018-02-23T18:17:29.043Z,101635.98
2018-02-23T18:20:03.240Z,101645.38
2018-02-23T18:22:42.273Z,101646.27
2018-02-23T18:25:17.465Z,101645.73
2018-02-23T18:27:51.623Z,101640.64
2018-02-23T18:30:39.769Z,101645.05
2018-02-23T18:33:18.696Z,101648.54
2018-02-23T18:36:00.879Z,101655.78
2018-02-23T18:38:33.786Z,101658.98
2018-02-23T18:41:05.959Z,101662.96
2018-02-23T18:43:39.602Z,101658.09
2018-02-23T18:46:15.692Z,101658.41
2018-02-23T18:49:09.586Z,101657.61
2018-02-23T18:51:46.924Z,101663.96
2018-02-23T18:57:14.994Z,101650.41
2018-02-23T18:59:49.217Z,101656.09
2018-02-23T19:02:20.786Z,101653.55
2018-02-23T19:04:52.611Z,101659.75
2018-02-23T19:07:27.070Z,101662.73
2018-02-23T19:09:59.192Z,101663.22
2018-02-23T19:12:32.498Z,101665.39
2018-02-23T19:15:07.677Z,101665.53
2018-02-23T19:17:39.719Z,101664.61
2018-02-23T19:20:20.781Z,101654.09
2018-02-23T19:22:55.469Z,101658.89
2018-02-23T19:25:29.512Z,101658.41
2018-02-23T19:28:00.982Z,101645.53
2018-02-23T19:30:33.258Z,101672.38
2018-02-23T19:33:06.781Z,101647.07
2018-02-23T19:35:39.009Z,101672.06
2018-02-23T19:38:10.326Z,101668.17
2018-02-23T19:40:45.088Z,101662.23
2018-02-23T19:43:18.202Z,101669.93
2018-02-23T19:45:51.553Z,101668.86
2018-02-23T19:48:24.819Z,101671.95
2018-02-23T19:50:57.914Z,101671.81
2018-02-23T19:53:32.240Z,101675.35
2018-02-23T19:56:05.957Z,101675.23
2018-02-23T19:58:38.440Z,101659.61
2018-02-23T20:01:13.679Z,101670.50
2018-02-23T20:03:47.463Z,101677.23
2018-02-23T20:06:19.998Z,101674.25
2018-02-23T20:08:54.493Z,101681.52
2018-02-23T20:11:27.165Z,101676.86
2018-02-23T20:13:58.852Z,101677.86
2018-02-23T20:16:32.507Z,101667.77
2018-02-23T20:19:05.253Z,101668.41
2018-02-23T20:21:39.152Z,101667.73
2018-02-23T20:24:12.747Z,101676.72
2018-02-23T20:26:45.690Z,101680.63
2018-02-23T20:29:17.404Z,101690.65
2018-02-23T20:31:52.062Z,101695.81
2018-02-23T20:34:24.509Z,101696.80
2018-02-23T20:36:55.684Z,101699.92
2018-02-23T20:39:28.051Z,101703.98
2018-02-23T20:41:59.701Z,101697.39
2018-02-23T20:44:30.939Z,101697.41
2018-02-23T20:47:02.921Z,101700.38
2018-02-23T20:49:34.075Z,101694.09
2018-02-23T20:52:05.187Z,101697.50
2018-02-23T20:54:36.567Z,101692.81
2018-02-23T20:57:07.706Z,101696.65
2018-02-23T20:59:38.735Z,101701.99
2018-02-23T21:02:10.752Z,101700.99
2018-02-23T21:04:42.374Z,101697.80
2018-02-23T21:07:16.702Z,101706.47
2018-02-23T21:09:49.858Z,101701.45
2018-02-23T21:12:22.912Z,101702.36
2018-02-23T21:14:55.005Z,101707.98
2018-02-23T21:17:27.080Z,101709.55
2018-02-23T21:20:00.798Z,101710.87
2018-02-23T21:22:32.645Z,101707.91
2018-02-23T21:25:05.847Z,101710.16
2018-02-23T21:27:37.557Z,101707.05
2018-02-23T21:30:09.797Z,101702.13
2018-02-23T21:32:41.401Z,101705.34
2018-02-23T21:35:12.443Z,101708.34
2018-02-23T21:37:43.928Z,101706.64
2018-02-23T21:40:15.025Z,101714.81
2018-02-23T21:42:46.379Z,101711.64
2018-02-23T21:45:19.311Z,101708.41
2018-02-23T21:47:51.003Z,101713.84
2018-02-23T21:50:22.104Z,101711.86
2018-02-23T21:52:53.267Z,101710.02
2018-02-23T21:55:24.432Z,101712.31
2018-02-23T21:57:56.239Z,101717.44
2018-02-23T22:00:33.413Z,101725.41
2018-02-23T22:03:05.635Z,101725.21
2018-02-23T22:09:21.865Z,101698.64
2018-02-23T22:11:54.036Z,101719.26
2018-02-23T22:14:27.563Z,101720.41
2018-02-23T22:17:00.738Z,101720.66
2018-02-23T22:19:34.408Z,101718.65
2018-02-23T22:22:12.356Z,101713.58
2018-02-23T22:24:43.742Z,101707.92
2018-02-23T22:27:15.223Z,101712.74
2018-02-23T22:29:46.905Z,101708.88
2018-02-23T22:32:21.087Z,101709.75
2018-02-23T22:34:52.410Z,101716.99
2018-02-23T22:37:24.747Z,101710.74
2018-02-23T22:39:57.152Z,101713.80
2018-02-23T22:42:28.261Z,101712.38
2018-02-23T22:45:00.057Z,101714.59
2018-02-23T22:47:34.553Z,101687.56
2018-02-23T22:50:05.829Z,101713.81
2018-02-23T22:52:36.935Z,101714.33
2018-02-23T22:55:08.180Z,101720.45
2018-02-23T22:57:46.262Z,101724.50
2018-02-23T23:00:27.348Z,101730.83
2018-02-23T23:03:03.234Z,101728.38
2018-02-23T23:05:37.433Z,101732.36
2018-02-23T23:08:14.135Z,101734.60
2018-02-23T23:10:49.819Z,101737.81
2018-02-23T23:13:34.246Z,101740.72
2018-02-23T23:16:07.544Z,101736.81
2018-02-23T23:18:39.339Z,101743.00
2018-02-23T23:21:10.613Z,101737.33
2018-02-23T23:23:42.332Z,101744.08
2018-02-23T23:26:14.321Z,101742.23
2018-02-23T23:28:47.142Z,101744.53
2018-02-23T23:31:19.259Z,101740.77
2018-02-23T23:33:52.913Z,101746.63
2018-02-23T23:36:40.932Z,101755.14
2018-02-23T23:39:13.240Z,101759.02
2018-02-23T23:41:46.068Z,101749.97
2018-02-23T23:44:17.709Z,101751.73
2018-02-23T23:46:51.350Z,101751.45
2018-02-23T23:49:25.841Z,101751.09
2018-02-23T23:51:59.001Z,101753.38
2018-02-23T23:54:32.902Z,101752.69
2018-02-23T23:57:11.681Z,101750.42
2018-02-23T23:59:43.889Z,101753.16
